Time;durP1;ratioP1;P1;durP2;ratioP2;P2;SDS_P1;SDS_P2;PMS_P1;PMS_P2;Temp;Humidity;BMP_temperature;BMP_pressure;BME280_temperature;BME280_humidity;BME280_pressure;Samples;Min_cycle;Max_cycle;Signal;HPM_P1;HPM_P2
2021/10/25 00:00:05;;;;;;;25.02;4.15;;;9.30;95.40;;;;;;5131277;27;20043;-80
2021/10/25 00:02:38;;;;;;;16.08;3.80;;;9.30;95.30;;;;;;5134215;27;20054;-81
2021/10/25 00:05:07;;;;;;;25.90;4.80;;;9.30;95.20;;;;;;5134158;27;20058;-81
2021/10/25 00:07:34;;;;;;;25.45;4.70;;;9.30;95.20;;;;;;5134469;27;20043;-81
2021/10/25 00:10:06;;;;;;;17.98;4.78;;;9.30;95.20;;;;;;5133268;27;20058;-81
2021/10/25 00:12:34;;;;;;;19.10;3.88;;;9.20;95.10;;;;;;5120378;27;20055;-81
2021/10/25 00:15:02;;;;;;;22.75;4.38;;;9.20;95.10;;;;;;5133854;27;20367;-81
2021/10/25 00:17:30;;;;;;;17.23;4.28;;;9.20;95.20;;;;;;5114461;27;20494;-81
2021/10/25 00:19:58;;;;;;;25.52;4.38;;;9.10;95.10;;;;;;5129594;27;20413;-81
2021/10/25 00:22:26;;;;;;;24.73;4.60;;;9.10;95.10;;;;;;5132841;27;20429;-81
2021/10/25 00:24:55;;;;;;;16.13;4.10;;;9.10;95.10;;;;;;5132814;27;20039;-81
2021/10/25 00:27:23;;;;;;;22.52;4.60;;;9.00;95.00;;;;;;5121839;27;20050;-81
2021/10/25 00:29:53;;;;;;;24.50;4.70;;;9.00;95.20;;;;;;5118007;27;20078;-81
2021/10/25 00:32:20;;;;;;;25.85;5.53;;;9.00;95.10;;;;;;5127963;27;20406;-81
2021/10/25 00:34:48;;;;;;;18.73;3.92;;;8.90;95.20;;;;;;5119452;27;20044;-82
2021/10/25 00:37:16;;;;;;;20.50;4.85;;;9.00;95.40;;;;;;5112754;27;20408;-81
2021/10/25 00:39:43;;;;;;;17.27;3.90;;;8.90;95.30;;;;;;5133540;27;20488;-82
2021/10/25 00:42:13;;;;;;;23.15;4.32;;;8.90;95.30;;;;;;5133647;27;20054;-81
2021/10/25 00:44:42;;;;;;;27.17;4.35;;;8.90;95.30;;;;;;5120166;27;20044;-81
2021/10/25 00:47:12;;;;;;;24.58;4.03;;;8.90;95.40;;;;;;5112851;28;20070;-82
2021/10/25 00:49:40;;;;;;;16.70;4.13;;;8.90;95.40;;;;;;5107228;27;20050;-82
2021/10/25 00:52:09;;;;;;;20.08;4.43;;;8.90;95.40;;;;;;5132688;27;20043;-80
2021/10/25 00:54:37;;;;;;;27.38;4.78;;;8.80;95.30;;;;;;5119851;27;20060;-81
2021/10/25 00:57:04;;;;;;;19.90;3.85;;;8.80;95.50;;;;;;5111434;28;20047;-81
2021/10/25 00:59:32;;;;;;;20.58;4.00;;;8.90;95.50;;;;;;5088425;27;20062;-81
2021/10/25 01:02:00;;;;;;;28.98;5.13;;;8.80;95.50;;;;;;5116911;27;20059;-81
2021/10/25 01:04:29;;;;;;;27.13;4.25;;;8.80;95.40;;;;;;5119596;27;20058;-82
2021/10/25 01:06:59;;;;;;;27.02;4.57;;;8.80;95.40;;;;;;5097012;27;20461;-81
2021/10/25 01:09:28;;;;;;;23.33;4.95;;;8.80;95.40;;;;;;5129477;27;20055;-81
2021/10/25 01:11:56;;;;;;;26.23;4.43;;;8.80;95.40;;;;;;5128835;27;20058;-81
2021/10/25 01:14:25;;;;;;;27.10;4.45;;;8.80;95.40;;;;;;5125764;27;20054;-81
2021/10/25 01:16:53;;;;;;;31.42;5.05;;;8.80;95.40;;;;;;5113378;27;20043;-80
2021/10/25 01:19:21;;;;;;;23.77;4.57;;;8.70;95.20;;;;;;5113888;27;20424;-80
2021/10/25 01:21:49;;;;;;;24.70;4.95;;;8.70;94.90;;;;;;5127239;27;20047;-82
2021/10/25 01:24:17;;;;;;;28.50;4.82;;;8.50;94.70;;;;;;5117285;27;20043;-81
2021/10/25 01:26:45;;;;;;;23.88;4.95;;;8.50;94.70;;;;;;5132318;27;20039;-81
2021/10/25 01:29:16;;;;;;;33.78;5.20;;;8.50;95.00;;;;;;5126825;27;20047;-81
2021/10/25 01:31:44;;;;;;;23.65;4.53;;;8.50;95.20;;;;;;5117940;27;20035;-81
2021/10/25 01:34:13;;;;;;;35.88;5.47;;;8.40;95.20;;;;;;5126528;27;20043;-81
2021/10/25 01:36:41;;;;;;;26.70;4.10;;;8.50;95.30;;;;;;5119384;27;20493;-81
2021/10/25 01:39:09;;;;;;;31.67;4.65;;;8.40;95.20;;;;;;5098834;28;20035;-80
2021/10/25 01:41:38;;;;;;;28.05;4.72;;;8.40;95.10;;;;;;5128724;28;20043;-80
2021/10/25 01:44:11;;;;;;;28.73;4.82;;;8.30;95.10;;;;;;5109308;28;20379;-81
2021/10/25 01:46:42;;;;;;;40.00;5.17;;;8.30;95.20;;;;;;5135082;27;20039;-81
2021/10/25 01:49:19;;;;;;;24.65;4.60;;;8.30;95.20;;;;;;5118103;27;20410;-81
2021/10/25 01:51:46;;;;;;;23.92;4.80;;;8.30;95.30;;;;;;5131671;27;20043;-81
2021/10/25 01:54:14;;;;;;;27.58;4.93;;;8.30;95.30;;;;;;5136486;27;20039;-81
2021/10/25 01:56:47;;;;;;;26.80;4.47;;;8.30;95.20;;;;;;5097299;27;20046;-81
2021/10/25 01:59:15;;;;;;;28.95;5.05;;;8.30;95.10;;;;;;5122422;27;20295;-81
2021/10/25 02:01:43;;;;;;;28.98;4.95;;;8.20;95.00;;;;;;5100137;27;20061;-80
2021/10/25 02:04:12;;;;;;;38.00;5.75;;;8.10;94.80;;;;;;5103285;28;20482;-80
2021/10/25 02:06:40;;;;;;;28.33;6.18;;;8.10;94.70;;;;;;5101104;27;20055;-80
2021/10/25 02:09:08;;;;;;;32.30;5.28;;;8.00;94.70;;;;;;5123140;27;20410;-80
2021/10/25 02:11:36;;;;;;;29.00;5.53;;;7.90;94.80;;;;;;5109120;27;20048;-80
2021/10/25 02:14:07;;;;;;;32.72;5.68;;;7.90;94.80;;;;;;5113834;28;20048;-81
2021/10/25 02:16:35;;;;;;;35.95;5.40;;;7.90;94.90;;;;;;5125991;27;20054;-80
2021/10/25 02:19:03;;;;;;;32.97;6.35;;;7.80;94.90;;;;;;5130484;27;20031;-80
2021/10/25 02:21:39;;;;;;;27.25;5.32;;;7.80;94.90;;;;;;5106210;27;20074;-80
2021/10/25 02:24:08;;;;;;;24.75;5.80;;;7.80;95.10;;;;;;5128024;27;20406;-80
2021/10/25 02:26:39;;;;;;;34.03;6.15;;;7.70;95.10;;;;;;5134068;27;20062;-80
2021/10/25 02:29:07;;;;;;;30.38;5.85;;;7.80;95.20;;;;;;5118680;27;20466;-80
2021/10/25 02:31:35;;;;;;;39.60;7.10;;;7.70;95.50;;;;;;5135020;27;20047;-80
2021/10/25 02:34:03;;;;;;;26.75;6.05;;;7.80;95.40;;;;;;5134309;27;20401;-80
2021/10/25 02:36:31;;;;;;;30.33;7.22;;;7.70;95.30;;;;;;5134489;27;20478;-80
2021/10/25 02:38:59;;;;;;;27.70;5.70;;;7.70;95.30;;;;;;5135089;27;20050;-80
2021/10/25 02:41:28;;;;;;;38.45;6.47;;;7.70;95.30;;;;;;5100922;28;20305;-81
2021/10/25 02:43:56;;;;;;;35.25;6.25;;;7.70;95.40;;;;;;5113808;27;20476;-81
2021/10/25 02:46:23;;;;;;;37.88;6.60;;;7.70;95.40;;;;;;5109124;27;20050;-81
2021/10/25 02:48:51;;;;;;;35.30;6.95;;;7.70;95.20;;;;;;5089444;27;20039;-81
2021/10/25 02:51:19;;;;;;;40.60;6.45;;;7.60;95.20;;;;;;5133679;27;20050;-81
2021/10/25 02:53:52;;;;;;;35.20;6.43;;;7.60;95.30;;;;;;5109447;28;20048;-81
2021/10/25 02:56:24;;;;;;;33.63;7.03;;;7.60;95.30;;;;;;5131689;27;20394;-81
2021/10/25 02:58:53;;;;;;;32.92;7.28;;;7.60;95.30;;;;;;5123579;27;20047;-81
2021/10/25 03:01:21;;;;;;;37.50;7.93;;;7.50;95.00;;;;;;5126004;27;20048;-81
2021/10/25 03:03:51;;;;;;;43.22;8.07;;;7.50;95.00;;;;;;5099342;28;20039;-81
2021/10/25 03:06:23;;;;;;;32.57;8.30;;;7.50;95.20;;;;;;5114977;27;20146;-81
2021/10/25 03:08:52;;;;;;;38.00;7.55;;;7.50;95.20;;;;;;5122348;27;20050;-80
2021/10/25 03:11:19;;;;;;;31.83;8.60;;;7.40;95.30;;;;;;5103371;28;20066;-81
2021/10/25 03:13:50;;;;;;;32.13;7.82;;;7.40;95.20;;;;;;5117679;27;20494;-80
2021/10/25 03:16:22;;;;;;;36.33;7.70;;;7.40;95.30;;;;;;5121429;27;20039;-81
2021/10/25 03:18:50;;;;;;;39.70;9.25;;;7.50;95.70;;;;;;5109508;27;20054;-81
2021/10/25 03:21:20;;;;;;;31.95;8.50;;;7.60;95.80;;;;;;5127297;27;20035;-81
2021/10/25 03:23:49;;;;;;;34.72;8.70;;;7.60;95.90;;;;;;5112787;28;20039;-81
2021/10/25 03:26:18;;;;;;;33.08;8.70;;;7.70;95.90;;;;;;5114530;27;20058;-80
2021/10/25 03:28:46;;;;;;;43.67;11.82;;;7.60;95.90;;;;;;5113217;27;20055;-81
2021/10/25 03:31:16;;;;;;;45.10;13.20;;;7.60;95.80;;;;;;5100247;28;20035;-81
2021/10/25 03:33:46;;;;;;;45.92;11.90;;;7.70;95.60;;;;;;5089737;27;20054;-80
2021/10/25 03:36:24;;;;;;;50.50;10.93;;;7.60;95.60;;;;;;5128009;27;20066;-80
2021/10/25 03:38:52;;;;;;;60.20;13.00;;;7.70;95.70;;;;;;5123529;27;20031;-81
2021/10/25 03:41:30;;;;;;;41.03;10.45;;;7.70;96.10;;;;;;5116145;27;20307;-81
2021/10/25 03:44:07;;;;;;;39.33;11.20;;;7.70;96.20;;;;;;5099011;28;20035;-80
2021/10/25 03:46:49;;;;;;;47.03;9.90;;;7.80;96.20;;;;;;5125066;27;20047;-81
2021/10/25 03:49:42;;;;;;;36.17;8.80;;;7.80;96.20;;;;;;5123957;27;20039;-81
2021/10/25 04:28:43;;;;;;;74.07;15.77;;;7.70;95.50;;;;;;5127320;27;20047;-80
2021/10/25 04:31:10;;;;;;;77.05;14.77;;;7.70;95.80;;;;;;5100185;27;20044;-80
2021/10/25 04:33:43;;;;;;;42.35;10.43;;;7.80;96.20;;;;;;5112340;27;20047;-81
2021/10/25 04:36:29;;;;;;;28.67;7.80;;;7.90;96.40;;;;;;5122728;27;20035;-80
2021/10/25 04:39:09;;;;;;;50.03;12.93;;;8.00;96.50;;;;;;5121766;27;20054;-80
2021/10/25 04:41:38;;;;;;;61.42;12.77;;;8.10;96.60;;;;;;5102398;28;20042;-80
2021/10/25 04:44:06;;;;;;;57.70;12.43;;;8.10;96.80;;;;;;5114354;27;20036;-80
2021/10/25 04:46:36;;;;;;;50.30;11.43;;;8.20;96.90;;;;;;5112030;28;20417;-80
2021/10/25 04:49:05;;;;;;;42.63;10.73;;;8.30;96.90;;;;;;5116288;27;20035;-80
2021/10/25 04:51:54;;;;;;;36.00;8.40;;;8.30;97.00;;;;;;5129681;27;20047;-80
2021/10/25 04:54:25;;;;;;;41.35;8.63;;;8.40;97.00;;;;;;5124499;27;20048;-80
2021/10/25 04:56:54;;;;;;;28.90;7.13;;;8.50;97.00;;;;;;5099790;28;20043;-80
2021/10/25 04:59:22;;;;;;;32.22;7.43;;;8.50;96.90;;;;;;5114938;27;20044;-80
2021/10/25 05:01:50;;;;;;;48.80;10.38;;;8.50;96.90;;;;;;5109603;27;20040;-80
2021/10/25 05:04:19;;;;;;;28.77;8.40;;;8.60;96.90;;;;;;5129648;27;20042;-80
2021/10/25 05:06:48;;;;;;;33.75;7.38;;;8.60;96.80;;;;;;5131210;27;20047;-80
2021/10/25 05:09:17;;;;;;;28.67;6.43;;;8.60;96.80;;;;;;5117199;27;20062;-80
2021/10/25 05:11:47;;;;;;;40.90;8.07;;;8.60;96.70;;;;;;5108847;27;20498;-80
2021/10/25 05:14:16;;;;;;;38.08;7.13;;;8.60;96.60;;;;;;5124861;27;20040;-80
2021/10/25 05:16:52;;;;;;;26.83;7.65;;;8.60;96.60;;;;;;5129922;27;20444;-80
2021/10/25 05:19:20;;;;;;;27.38;5.03;;;8.60;96.50;;;;;;5118210;27;20490;-81
2021/10/25 05:21:55;;;;;;;22.58;5.63;;;8.50;96.50;;;;;;5127956;27;20046;-80
2021/10/25 05:24:23;;;;;;;29.33;5.20;;;8.60;96.60;;;;;;5124114;27;20293;-80
2021/10/25 05:26:51;;;;;;;30.63;5.05;;;8.60;96.50;;;;;;5131579;27;20047;-80
2021/10/25 05:29:18;;;;;;;32.03;8.18;;;8.60;96.50;;;;;;5114812;28;20433;-80
2021/10/25 05:31:47;;;;;;;26.27;5.57;;;8.50;96.40;;;;;;5119474;27;20044;-80
2021/10/25 05:34:15;;;;;;;27.05;5.68;;;8.50;96.40;;;;;;5104854;28;20043;-80
2021/10/25 05:36:42;;;;;;;15.32;5.22;;;8.50;96.40;;;;;;5101535;27;20422;-80
2021/10/25 05:39:10;;;;;;;24.20;5.88;;;8.50;96.40;;;;;;5120600;27;20039;-80
2021/10/25 05:41:40;;;;;;;26.92;7.63;;;8.50;96.50;;;;;;5117196;28;20046;-80
2021/10/25 05:44:08;;;;;;;29.75;7.68;;;8.50;96.40;;;;;;5122541;28;20043;-80
2021/10/25 05:46:38;;;;;;;34.83;9.48;;;8.50;96.40;;;;;;5111243;28;20054;-80
2021/10/25 05:49:06;;;;;;;30.90;8.98;;;8.40;96.30;;;;;;5111001;28;20212;-80
2021/10/25 05:51:34;;;;;;;45.38;10.18;;;8.40;96.30;;;;;;5100726;28;20055;-80
2021/10/25 05:54:05;;;;;;;29.75;7.43;;;8.40;96.30;;;;;;5108461;28;20805;-80
2021/10/25 05:56:32;;;;;;;33.13;7.00;;;8.40;96.40;;;;;;5088360;28;20055;-80
2021/10/25 05:59:00;;;;;;;35.85;7.50;;;8.40;96.50;;;;;;5129898;28;20477;-80
2021/10/25 06:01:35;;;;;;;40.83;10.00;;;8.40;96.60;;;;;;5120808;28;20039;-80
2021/10/25 06:04:21;;;;;;;36.97;8.95;;;8.50;96.70;;;;;;5122888;28;20055;-79
2021/10/25 06:07:09;;;;;;;;;;;8.50;96.70;;;;;;5131089;28;20043;-80
2021/10/25 06:09:37;;;;;;;58.78;9.55;;;8.50;96.50;;;;;;5122977;28;19927;-80
2021/10/25 06:12:12;;;;;;;50.03;12.23;;;8.50;96.50;;;;;;5110216;28;20048;-80
2021/10/25 06:15:05;;;;;;;28.00;7.30;;;8.50;96.50;;;;;;5116535;28;20059;-79
2021/10/25 06:17:50;;;;;;;30.98;8.70;;;8.40;96.50;;;;;;5117956;28;20043;-80
2021/10/25 06:20:20;;;;;;;26.58;7.28;;;8.50;96.60;;;;;;5121352;28;20048;-80
2021/10/25 06:22:48;;;;;;;41.95;9.05;;;8.40;96.60;;;;;;5123571;28;20043;-80
2021/10/25 06:25:23;;;;;;;35.03;10.40;;;8.50;96.60;;;;;;5123825;28;20036;-80
2021/10/25 06:28:09;;;;;;;24.50;6.93;;;8.50;96.60;;;;;;5096274;28;20498;-80
2021/10/25 06:30:41;;;;;;;29.70;7.63;;;8.60;96.70;;;;;;5094867;28;20040;-80
2021/10/25 06:33:15;;;;;;;26.40;8.10;;;8.50;96.70;;;;;;5133112;27;20050;-80
2021/10/25 06:36:06;;;;;;;27.00;6.60;;;8.50;96.80;;;;;;5119256;27;20039;-80
2021/10/25 06:39:05;;;;;;;26.02;6.25;;;8.60;96.70;;;;;;5130358;27;20398;-80
2021/10/25 06:41:33;;;;;;;25.73;6.78;;;8.60;96.70;;;;;;5121023;27;20050;-80
2021/10/25 06:44:01;;;;;;;19.08;6.05;;;8.60;96.60;;;;;;5098987;28;20043;-80
2021/10/25 06:46:29;;;;;;;25.17;6.63;;;8.60;96.50;;;;;;5130284;27;20043;-80
2021/10/25 06:49:01;;;;;;;25.25;5.80;;;8.60;96.50;;;;;;5106644;28;20055;-80
2021/10/25 06:51:31;;;;;;;20.63;6.22;;;8.60;96.50;;;;;;5117821;27;20043;-80
2021/10/25 06:53:59;;;;;;;22.55;5.50;;;8.60;96.50;;;;;;5098063;28;20055;-80
2021/10/25 06:56:30;;;;;;;28.67;5.75;;;8.60;96.50;;;;;;5121656;27;20040;-80
2021/10/25 06:58:57;;;;;;;22.95;6.07;;;8.60;96.50;;;;;;5127523;27;20043;-80
2021/10/25 07:01:25;;;;;;;23.45;5.30;;;8.60;96.60;;;;;;5118390;27;20052;-81
2021/10/25 07:03:55;;;;;;;15.85;4.40;;;8.70;96.70;;;;;;5123328;27;20048;-80
2021/10/25 07:06:32;;;;;;;20.45;4.72;;;8.80;96.80;;;;;;5124735;27;20027;-80
2021/10/25 07:09:02;;;;;;;17.17;4.38;;;8.80;96.90;;;;;;5132083;27;20054;-80
2021/10/25 07:11:31;;;;;;;19.80;4.15;;;8.80;97.00;;;;;;5118737;27;20041;-80
2021/10/25 07:13:59;;;;;;;20.88;3.65;;;8.90;97.10;;;;;;5130072;27;20051;-80
2021/10/25 07:16:48;;;;;;;19.52;3.85;;;9.00;97.10;;;;;;5118922;27;20059;-80
2021/10/25 08:07:29;;;;;;;19.23;3.63;;;10.00;96.30;;;;;;5112431;27;20514;-80
2021/10/25 08:10:16;;;;;;;11.32;2.70;;;10.00;96.10;;;;;;5118589;27;20040;-79
2021/10/25 08:12:55;;;;;;;19.92;3.38;;;10.00;95.90;;;;;;5112544;28;20043;-80
2021/10/25 08:15:33;;;;;;;18.90;3.78;;;10.00;95.80;;;;;;5115911;27;20051;-79
2021/10/25 08:18:05;;;;;;;17.60;3.65;;;10.00;95.80;;;;;;5128510;27;20414;-79
2021/10/25 08:20:34;;;;;;;17.98;4.03;;;10.00;95.80;;;;;;5116711;27;20043;-80
2021/10/25 08:23:03;;;;;;;21.52;4.15;;;10.00;95.90;;;;;;5127851;27;20046;-79
2021/10/25 08:25:36;;;;;;;16.75;3.13;;;10.00;95.80;;;;;;5104800;27;20087;-81
2021/10/25 08:28:13;;;;;;;11.55;4.05;;;10.00;95.70;;;;;;5122708;27;20048;-82
2021/10/25 08:30:41;;;;;;;16.42;3.70;;;10.00;95.50;;;;;;5097584;27;20052;-81
2021/10/25 08:36:10;;;;;;;21.98;3.92;;;9.90;95.40;;;;;;5130455;27;20051;-81
2021/10/25 08:41:47;;;;;;;12.93;3.58;;;10.00;95.50;;;;;;5104334;27;20394;-83
2021/10/25 08:44:16;;;;;;;11.90;2.95;;;10.00;95.60;;;;;;5121071;27;20050;-80
2021/10/25 08:46:53;;;;;;;18.27;3.45;;;10.00;95.60;;;;;;5104687;27;20039;-81
2021/10/25 08:49:22;;;;;;;11.30;2.90;;;10.00;95.50;;;;;;5106899;27;20043;-81
2021/10/25 08:51:50;;;;;;;17.27;2.90;;;10.10;95.60;;;;;;5104185;27;20062;-80
2021/10/25 08:54:25;;;;;;;14.90;3.13;;;10.10;95.60;;;;;;5118883;27;20039;-80
2021/10/25 08:56:59;;;;;;;18.13;3.28;;;10.10;95.60;;;;;;5123126;27;20047;-80
2021/10/25 08:59:32;;;;;;;11.98;3.38;;;10.20;95.60;;;;;;5112182;28;20516;-79
2021/10/25 09:02:06;;;;;;;13.75;3.00;;;10.20;95.60;;;;;;5116681;27;20047;-81
2021/10/25 09:05:05;;;;;;;13.52;3.00;;;10.30;95.70;;;;;;5117521;27;20031;-80
2021/10/25 09:07:57;;;;;;;13.65;2.50;;;10.30;95.70;;;;;;5098141;27;20058;-80
2021/10/25 09:10:45;;;;;;;12.25;2.47;;;10.40;95.60;;;;;;5130689;27;20409;-80
2021/10/25 09:13:24;;;;;;;13.15;2.75;;;10.50;95.40;;;;;;5131554;27;20046;-80
2021/10/25 09:15:57;;;;;;;12.98;2.20;;;10.60;95.40;;;;;;5129988;27;20498;-81
2021/10/25 09:18:53;;;;;;;13.75;2.05;;;10.70;95.30;;;;;;5122600;27;20043;-81
2021/10/25 09:21:33;;;;;;;12.52;2.30;;;10.70;95.10;;;;;;5131868;27;20043;-81
2021/10/25 09:24:17;;;;;;;14.30;2.70;;;10.80;94.90;;;;;;5110427;27;20054;-82
2021/10/25 09:26:55;;;;;;;9.70;1.60;;;11.00;94.70;;;;;;5111572;28;20047;-81
2021/10/25 09:29:27;;;;;;;10.55;2.10;;;11.20;94.00;;;;;;5128415;27;20051;-82
2021/10/25 09:31:59;;;;;;;12.68;2.10;;;11.30;92.80;;;;;;5131915;27;20111;-82
2021/10/25 09:34:36;;;;;;;12.32;2.10;;;11.40;92.00;;;;;;5105446;27;20054;-83
2021/10/25 09:37:31;;;;;;;7.00;1.50;;;11.60;91.80;;;;;;5130107;27;20047;-83
2021/10/25 09:40:17;;;;;;;7.30;1.63;;;11.70;90.60;;;;;;5120026;27;20051;-83
2021/10/25 09:45:34;;;;;;;9.85;1.50;;;11.70;90.70;;;;;;5125901;27;20058;-82
2021/10/25 09:51:16;;;;;;;5.22;1.33;;;11.90;90.00;;;;;;5110827;28;20066;-83
2021/10/25 09:54:06;;;;;;;5.88;1.20;;;12.00;89.00;;;;;;5126299;28;20043;-82
2021/10/25 09:56:51;;;;;;;11.40;1.30;;;12.10;88.70;;;;;;5120707;28;20047;-83
2021/10/25 09:59:55;;;;;;;5.88;1.02;;;12.20;88.40;;;;;;5130751;28;20055;-83
2021/10/25 10:02:47;;;;;;;4.75;1.10;;;12.20;87.40;;;;;;5131151;28;20039;-83
2021/10/25 10:05:35;;;;;;;9.27;1.60;;;12.10;87.00;;;;;;5099819;27;20047;-83
2021/10/25 10:08:08;;;;;;;8.23;1.40;;;12.00;87.30;;;;;;5120193;27;20429;-83
2021/10/25 10:10:37;;;;;;;11.65;1.70;;;12.10;87.40;;;;;;5125666;27;20517;-83
2021/10/25 10:13:17;;;;;;;8.43;1.35;;;12.10;87.10;;;;;;5135354;27;20035;-83
2021/10/25 10:16:15;;;;;;;6.88;1.67;;;12.10;87.00;;;;;;5133150;27;20524;-83
2021/10/25 10:18:52;;;;;;;10.35;1.67;;;12.00;86.70;;;;;;5121624;27;20405;-83
2021/10/25 10:21:48;;;;;;;7.65;1.45;;;12.00;86.90;;;;;;5125253;27;20494;-82
2021/10/25 10:24:35;;;;;;;21.67;6.65;;;12.10;86.80;;;;;;5119045;27;20054;-82
2021/10/25 10:27:13;;;;;;;16.45;7.38;;;12.10;86.60;;;;;;5136752;27;20050;-82
2021/10/25 10:29:42;;;;;;;9.35;2.80;;;12.20;86.40;;;;;;5135505;27;20051;-82
2021/10/25 10:32:15;;;;;;;5.60;1.42;;;12.30;86.20;;;;;;5134678;27;20046;-82
2021/10/25 10:35:16;;;;;;;10.88;2.13;;;12.20;85.60;;;;;;5136359;27;20058;-81
2021/10/25 10:37:59;;;;;;;5.95;0.85;;;12.20;85.60;;;;;;5135101;27;20047;-83
2021/10/25 10:40:41;;;;;;;3.10;0.73;;;12.10;85.40;;;;;;5108167;27;20057;-81
2021/10/25 10:43:30;;;;;;;5.45;1.02;;;12.00;84.90;;;;;;5133595;27;20055;-84
2021/10/25 10:46:07;;;;;;;;;;;12.00;84.30;;;;;;5121026;27;20059;-82
2021/10/25 10:48:37;;;;;;;4.15;0.63;;;12.00;84.60;;;;;;5132668;27;20369;-83
2021/10/25 10:51:10;;;;;;;5.38;0.95;;;12.10;84.90;;;;;;5134496;27;20055;-83
2021/10/25 10:53:53;;;;;;;3.88;0.98;;;12.30;85.30;;;;;;5134331;27;20054;-83
2021/10/25 10:56:28;;;;;;;5.75;0.95;;;12.30;84.90;;;;;;5136307;27;20043;-83
2021/10/25 10:59:29;;;;;;;5.10;1.25;;;12.50;84.80;;;;;;5131530;27;20051;-84
2021/10/25 11:01:57;;;;;;;3.70;0.70;;;12.60;85.00;;;;;;5117661;27;20055;-82
2021/10/25 11:04:33;;;;;;;9.90;1.35;;;12.80;84.80;;;;;;5132428;27;20051;-83
2021/10/25 11:07:02;;;;;;;6.45;1.23;;;12.80;84.30;;;;;;5115324;27;20418;-83
2021/10/25 11:09:40;;;;;;;6.07;1.02;;;12.90;84.30;;;;;;5136074;27;20054;-83
2021/10/25 11:12:30;;;;;;;6.57;0.90;;;12.90;84.30;;;;;;5115650;27;20035;-83
2021/10/25 11:15:04;;;;;;;6.20;1.13;;;13.00;83.80;;;;;;5098992;28;20430;-83
2021/10/25 11:17:32;;;;;;;5.93;0.77;;;13.00;83.50;;;;;;5125636;27;20046;-82
2021/10/25 11:20:00;;;;;;;5.32;0.85;;;13.00;82.30;;;;;;5113105;28;20048;-83
2021/10/25 11:22:32;;;;;;;4.13;0.80;;;13.10;82.00;;;;;;5083742;28;20050;-84
2021/10/25 11:25:04;;;;;;;5.15;0.90;;;13.40;80.60;;;;;;5114558;28;20059;-84
2021/10/25 11:27:36;;;;;;;3.13;0.73;;;13.50;80.00;;;;;;5114493;28;20047;-84
2021/10/25 11:30:11;;;;;;;4.60;1.00;;;13.70;79.80;;;;;;5123865;27;20031;-84
2021/10/25 11:32:43;;;;;;;9.00;1.02;;;13.70;78.90;;;;;;5132905;27;20406;-84
2021/10/25 11:35:18;;;;;;;6.53;0.95;;;13.70;79.10;;;;;;5102073;27;20054;-84
2021/10/25 11:37:50;;;;;;;4.70;1.13;;;13.60;78.40;;;;;;5110063;27;20556;-84
2021/10/25 11:40:23;;;;;;;5.05;1.08;;;13.50;78.70;;;;;;5115205;27;20043;-84
2021/10/25 11:42:51;;;;;;;;;;;13.50;78.70;;;;;;5116161;27;20043;-84
2021/10/25 11:45:24;;;;;;;2.80;0.70;;;13.30;77.90;;;;;;5112839;27;19931;-83
2021/10/25 11:47:54;;;;;;;6.07;0.65;;;13.30;77.20;;;;;;5134074;27;20046;-81
2021/10/25 11:50:27;;;;;;;5.78;0.80;;;13.20;77.20;;;;;;5134189;27;20055;-84
2021/10/25 11:53:07;;;;;;;5.07;1.02;;;13.10;76.80;;;;;;5132910;27;20039;-79
2021/10/25 11:55:38;;;;;;;6.28;1.00;;;13.10;76.70;;;;;;5134532;27;20390;-79
2021/10/25 11:58:13;;;;;;;4.47;0.93;;;13.10;76.60;;;;;;5132617;27;20055;-79
2021/10/25 12:00:47;;;;;;;6.05;0.73;;;13.00;76.90;;;;;;5134233;27;20394;-79
2021/10/25 12:03:38;;;;;;;3.80;0.75;;;13.10;76.90;;;;;;5118869;27;20046;-79
2021/10/25 12:06:18;;;;;;;1.67;0.50;;;13.20;76.10;;;;;;5116350;27;20413;-79
2021/10/25 12:09:00;;;;;;;4.88;1.17;;;13.20;75.60;;;;;;5116413;27;20138;-79
2021/10/25 12:11:36;;;;;;;6.07;0.88;;;13.20;75.50;;;;;;5133408;27;20047;-79
2021/10/25 12:14:07;;;;;;;4.93;0.93;;;13.20;74.90;;;;;;5133788;27;20047;-79
2021/10/25 12:16:34;;;;;;;7.13;1.15;;;13.10;74.90;;;;;;5134591;27;20047;-78
2021/10/25 12:19:02;;;;;;;5.75;0.80;;;13.10;75.40;;;;;;5134564;27;20043;-79
2021/10/25 12:21:35;;;;;;;3.92;1.13;;;13.10;75.50;;;;;;5134730;27;20051;-79
2021/10/25 12:24:09;;;;;;;6.88;1.00;;;13.20;75.60;;;;;;5134271;27;20058;-79
2021/10/25 12:26:41;;;;;;;8.38;1.45;;;13.10;75.60;;;;;;5133225;27;20051;-79
2021/10/25 12:29:19;;;;;;;4.80;0.73;;;13.20;75.40;;;;;;5134271;27;20232;-78
2021/10/25 12:31:48;;;;;;;6.40;0.93;;;13.30;75.30;;;;;;5133726;27;20054;-78
2021/10/25 12:34:16;;;;;;;3.67;0.95;;;13.20;75.20;;;;;;5134123;27;20077;-78
2021/10/25 12:36:48;;;;;;;5.47;1.10;;;13.20;75.30;;;;;;5133799;27;20051;-80
2021/10/25 12:39:18;;;;;;;4.85;0.90;;;13.30;75.30;;;;;;5133597;27;20046;-78
2021/10/25 12:41:50;;;;;;;5.60;0.80;;;13.30;74.60;;;;;;5134408;27;20051;-78
2021/10/25 12:44:41;;;;;;;5.07;0.88;;;13.30;74.90;;;;;;5132552;27;20051;-79
2021/10/25 12:47:12;;;;;;;8.88;1.17;;;13.40;74.60;;;;;;5134155;27;20065;-78
2021/10/25 12:49:51;;;;;;;8.32;1.30;;;13.60;73.70;;;;;;5133976;27;20070;-79
2021/10/25 12:52:19;;;;;;;6.05;1.30;;;13.80;74.00;;;;;;5133592;27;20424;-79
2021/10/25 12:54:47;;;;;;;9.43;1.00;;;14.00;72.60;;;;;;5133133;27;20070;-78
2021/10/25 12:57:20;;;;;;;7.03;1.23;;;14.20;72.90;;;;;;5134002;27;20039;-78
2021/10/25 13:00:13;;;;;;;6.37;1.13;;;14.30;72.80;;;;;;5132778;27;20039;-79
2021/10/25 13:02:52;;;;;;;5.63;1.17;;;14.50;71.40;;;;;;5132948;27;20051;-79
2021/10/25 13:05:31;;;;;;;6.60;1.08;;;14.50;70.80;;;;;;5131866;27;20051;-78
2021/10/25 13:08:04;;;;;;;3.65;0.75;;;14.60;69.90;;;;;;5131618;27;20058;-79
2021/10/25 13:10:38;;;;;;;7.05;1.02;;;14.80;70.10;;;;;;5132017;27;20393;-79
2021/10/25 13:13:16;;;;;;;3.25;1.02;;;15.00;69.50;;;;;;5132346;27;20035;-79
2021/10/25 13:15:46;;;;;;;10.65;1.20;;;15.30;70.00;;;;;;5133323;27;20043;-79
2021/10/25 13:18:14;;;;;;;6.20;1.05;;;15.70;69.00;;;;;;5131923;27;20057;-79
2021/10/25 13:20:45;;;;;;;5.53;1.00;;;16.10;68.60;;;;;;5131272;27;20055;-80
2021/10/25 13:23:14;;;;;;;5.78;1.17;;;16.10;66.00;;;;;;5131379;27;20047;-79
2021/10/25 13:25:43;;;;;;;4.75;1.10;;;16.10;65.00;;;;;;5115259;27;20039;-79
2021/10/25 13:28:11;;;;;;;5.90;1.00;;;16.30;64.30;;;;;;5132508;27;20489;-79
2021/10/25 13:30:38;;;;;;;5.05;1.10;;;16.70;62.40;;;;;;5134057;27;20050;-79
2021/10/25 13:33:06;;;;;;;9.20;1.60;;;16.50;59.90;;;;;;5133434;27;20047;-80
2021/10/25 13:35:34;;;;;;;7.15;1.27;;;15.80;61.20;;;;;;5131964;27;20058;-80
2021/10/25 13:38:03;;;;;;;6.13;1.38;;;15.30;63.50;;;;;;5131835;27;20047;-79
2021/10/25 13:40:32;;;;;;;6.90;1.45;;;14.90;65.40;;;;;;5132868;27;20046;-79
2021/10/25 13:43:01;;;;;;;7.25;1.55;;;14.50;65.90;;;;;;5132825;27;20051;-80
2021/10/25 13:45:30;;;;;;;6.30;1.30;;;14.30;67.10;;;;;;5133368;28;20054;-80
2021/10/25 13:47:59;;;;;;;6.13;1.17;;;14.80;67.40;;;;;;5126821;28;20046;-85
2021/10/25 13:50:27;;;;;;;7.47;1.55;;;15.80;66.20;;;;;;5124625;27;20501;-79
2021/10/25 13:52:58;;;;;;;4.82;0.90;;;16.70;62.60;;;;;;5128854;28;20039;-80
2021/10/25 13:55:26;;;;;;;4.35;0.93;;;16.90;60.30;;;;;;5133040;28;20039;-80
2021/10/25 13:57:54;;;;;;;2.97;0.60;;;16.60;56.90;;;;;;5133446;28;20051;-80
2021/10/25 14:00:22;;;;;;;5.38;0.93;;;16.20;56.90;;;;;;5131412;28;20043;-80
2021/10/25 14:02:54;;;;;;;5.35;0.98;;;15.80;57.80;;;;;;5127658;28;20039;-81
2021/10/25 14:05:22;;;;;;;8.55;1.55;;;15.30;58.70;;;;;;5131439;28;20047;-80
2021/10/25 14:07:50;;;;;;;6.03;1.20;;;15.00;59.80;;;;;;5109299;27;20047;-79
2021/10/25 14:10:27;;;;;;;6.07;0.98;;;15.00;61.10;;;;;;5127197;28;20055;-78
2021/10/25 14:13:02;;;;;;;8.10;1.90;;;15.20;61.90;;;;;;5133846;28;20039;-79
2021/10/25 14:15:32;;;;;;;6.45;1.00;;;15.60;61.70;;;;;;5129849;28;20059;-79
2021/10/25 14:18:00;;;;;;;6.28;1.25;;;16.00;59.80;;;;;;5125151;28;20040;-79
2021/10/25 14:20:31;;;;;;;8.20;1.08;;;16.10;58.60;;;;;;5106939;28;20052;-80
2021/10/25 14:23:00;;;;;;;9.57;1.35;;;15.80;58.80;;;;;;5128586;27;20051;-80
2021/10/25 14:25:30;;;;;;;9.10;1.35;;;15.60;60.00;;;;;;5117877;28;20443;-81
2021/10/25 14:28:01;;;;;;;5.10;1.27;;;15.20;60.70;;;;;;5128181;27;20436;-78
2021/10/25 14:30:30;;;;;;;6.43;1.30;;;14.90;61.40;;;;;;5098639;28;20497;-78
2021/10/25 14:33:01;;;;;;;8.15;1.20;;;14.60;62.60;;;;;;5128095;28;20043;-81
2021/10/25 14:35:29;;;;;;;5.53;0.93;;;14.80;62.80;;;;;;5128285;27;20204;-80
2021/10/25 14:37:59;;;;;;;6.15;1.00;;;15.10;62.50;;;;;;5122507;28;20039;-80
2021/10/25 14:40:43;;;;;;;8.65;1.27;;;15.40;62.60;;;;;;5120218;27;20051;-81
2021/10/25 14:43:16;;;;;;;7.32;1.05;;;15.80;61.80;;;;;;5121620;28;20048;-81
2021/10/25 14:45:50;;;;;;;7.15;1.30;;;16.20;60.40;;;;;;5127149;28;20526;-79
2021/10/25 14:48:23;;;;;;;11.05;1.38;;;16.30;59.60;;;;;;5116983;28;20043;-80
2021/10/25 14:53:49;;;;;;;5.15;1.33;;;15.50;60.30;;;;;;5132765;27;20043;-79